createdAt,value
2023-01-30T00:04:02.038Z,98885.73
2023-01-30T00:09:04.277Z,98876.81
2023-01-30T00:14:06.279Z,98858.39
2023-01-30T00:19:08.083Z,98848.39
2023-01-30T00:24:10.104Z,98836.92
2023-01-30T00:29:12.206Z,98836.45
2023-01-30T00:34:18.712Z,98833.02
2023-01-30T00:39:20.574Z,98825.97
2023-01-30T00:44:40.994Z,98821.58
2023-01-30T00:49:43.451Z,98812.90
2023-01-30T00:54:45.301Z,98802.88
2023-01-30T00:59:49.736Z,98791.34
2023-01-30T01:04:52.381Z,98777.91
2023-01-30T01:09:54.367Z,98775.67
2023-01-30T01:14:56.132Z,98762.65
2023-01-30T01:19:58.186Z,98750.00
2023-01-30T01:25:01.789Z,98739.48
2023-01-30T01:30:04.296Z,98726.67
2023-01-30T01:35:06.301Z,98721.48
2023-01-30T01:40:27.112Z,98699.54
2023-01-30T01:45:29.623Z,98670.18
2023-01-30T01:50:40.676Z,98657.61
2023-01-30T01:55:44.786Z,98641.75
2023-01-30T02:00:47.976Z,98627.93
2023-01-30T02:05:51.654Z,98624.04
2023-01-30T02:11:00.484Z,98612.64
2023-01-30T02:16:04.607Z,98611.27
2023-01-30T02:21:26.755Z,98608.98
2023-01-30T02:26:47.348Z,98594.35
2023-01-30T02:31:52.489Z,98573.89
2023-01-30T02:36:55.262Z,98575.20
2023-01-30T02:42:00.848Z,98562.80
2023-01-30T02:47:02.806Z,98550.27
2023-01-30T02:52:06.832Z,98551.06
2023-01-30T02:57:18.639Z,98556.31
2023-01-30T03:02:32.741Z,98555.30
2023-01-30T03:07:43.758Z,98548.42
2023-01-30T03:12:45.831Z,98542.58
2023-01-30T03:17:48.142Z,98537.71
2023-01-30T03:22:51.474Z,98539.33
2023-01-30T03:27:54.636Z,98530.98
2023-01-30T03:32:56.763Z,98522.27
2023-01-30T03:37:58.903Z,98523.78
2023-01-30T03:43:00.863Z,98514.48
2023-01-30T03:48:03.389Z,98499.98
2023-01-30T03:53:05.915Z,98493.42
2023-01-30T03:58:07.731Z,98475.23
2023-01-30T04:03:09.669Z,98465.33
2023-01-30T04:08:14.005Z,98449.94
2023-01-30T04:13:17.234Z,98443.60
2023-01-30T04:18:19.313Z,98429.36
2023-01-30T04:23:33.384Z,98421.67
2023-01-30T04:28:35.335Z,98420.02
2023-01-30T04:33:39.945Z,98407.73
2023-01-30T04:38:42.536Z,98402.36
2023-01-30T04:43:44.755Z,98405.19
2023-01-30T04:49:14.691Z,98410.06
2023-01-30T04:54:18.671Z,98391.30
2023-01-30T04:59:20.465Z,98377.38
2023-01-30T05:04:23.069Z,98364.71
2023-01-30T05:09:25.335Z,98353.27
2023-01-30T05:14:27.107Z,98347.59
2023-01-30T05:19:28.903Z,98342.34
2023-01-30T05:24:30.707Z,98339.55
2023-01-30T05:29:32.480Z,98339.57
2023-01-30T05:34:34.358Z,98334.23
2023-01-30T05:39:36.121Z,98352.86
2023-01-30T05:44:37.822Z,98330.43
2023-01-30T05:49:39.608Z,98306.85
2023-01-30T05:54:41.333Z,98275.11
2023-01-30T05:59:43.133Z,98258.83
2023-01-30T06:04:44.872Z,98257.94
2023-01-30T06:09:46.679Z,98277.84
2023-01-30T06:14:48.416Z,98271.12
2023-01-30T06:19:50.740Z,98267.55
2023-01-30T06:24:52.521Z,98267.11
2023-01-30T06:29:54.308Z,98262.71
2023-01-30T06:34:56.149Z,98259.66
2023-01-30T06:39:57.905Z,98252.54
2023-01-30T06:44:59.715Z,98258.77
2023-01-30T06:50:01.516Z,98250.05
2023-01-30T06:55:03.540Z,98248.01
2023-01-30T07:00:06.637Z,98239.95
2023-01-30T07:05:09.549Z,98243.53
2023-01-30T07:10:12.156Z,98211.88
2023-01-30T07:15:13.985Z,98205.17
2023-01-30T07:20:16.526Z,98202.41
2023-01-30T07:25:19.014Z,98190.27
2023-01-30T07:30:21.293Z,98192.14
2023-01-30T07:35:23.949Z,98184.98
2023-01-30T07:40:26.796Z,98187.84
2023-01-30T07:45:30.211Z,98178.34
2023-01-30T07:50:32.008Z,98178.66
2023-01-30T07:55:34.177Z,98179.52
2023-01-30T08:00:36.274Z,98194.41
2023-01-30T08:05:38.088Z,98181.75
2023-01-30T08:10:39.937Z,98154.39
2023-01-30T08:15:41.749Z,98150.89
2023-01-30T08:20:43.534Z,98138.95
2023-01-30T08:25:45.335Z,98138.48
2023-01-30T08:30:47.446Z,98137.52
2023-01-30T08:35:49.178Z,98139.20
2023-01-30T08:40:50.951Z,98130.04
2023-01-30T08:45:56.964Z,98133.86
2023-01-30T08:50:58.822Z,98126.78
2023-01-30T08:56:00.710Z,98121.04
2023-01-30T09:01:06.664Z,98121.09
2023-01-30T09:06:08.878Z,98117.84
2023-01-30T09:12:41.571Z,98099.80
2023-01-30T09:17:44.799Z,98091.19
2023-01-30T09:22:46.793Z,98091.01
2023-01-30T09:27:49.752Z,98086.35
2023-01-30T09:32:51.700Z,98074.80
2023-01-30T09:37:54.145Z,98069.53
2023-01-30T09:42:58.783Z,98062.90
2023-01-30T09:48:05.167Z,98055.79
2023-01-30T09:53:17.434Z,98034.94
2023-01-30T09:58:20.754Z,98025.14
2023-01-30T10:03:41.852Z,98027.27
2023-01-30T10:08:49.484Z,98034.12
2023-01-30T10:13:51.300Z,98017.50
2023-01-30T10:18:53.283Z,98010.20
2023-01-30T10:24:13.398Z,97990.81
2023-01-30T10:29:18.327Z,97984.26
2023-01-30T10:34:34.596Z,97972.38
2023-01-30T10:39:54.315Z,97963.73
2023-01-30T10:45:02.341Z,97955.58
2023-01-30T10:50:16.557Z,97967.75
2023-01-30T10:55:38.865Z,97948.63
2023-01-30T11:00:40.759Z,97938.70
2023-01-30T11:05:53.112Z,97927.35
2023-01-30T11:10:55.813Z,97919.05
2023-01-30T11:15:59.704Z,97913.17
2023-01-30T11:21:01.519Z,97908.77
2023-01-30T11:26:11.213Z,97893.25
2023-01-30T11:31:28.307Z,97881.08
2023-01-30T11:36:38.212Z,97875.64
2023-01-30T11:41:44.084Z,97861.64
2023-01-30T11:46:45.940Z,97856.23
2023-01-30T11:51:52.341Z,97838.69
2023-01-30T11:56:56.478Z,97832.68
2023-01-30T12:02:06.170Z,97839.73
2023-01-30T12:07:16.633Z,97831.80
2023-01-30T12:12:29.977Z,97829.27
2023-01-30T12:17:42.842Z,97818.70
2023-01-30T12:22:53.957Z,97823.71
2023-01-30T12:28:01.700Z,97827.80
2023-01-30T12:33:05.012Z,97831.73
2023-01-30T12:38:13.923Z,97829.09
2023-01-30T12:43:34.196Z,97813.27
2023-01-30T12:49:10.919Z,97804.39
2023-01-30T12:54:27.410Z,97799.44
2023-01-30T12:59:36.309Z,97792.42
2023-01-30T13:05:01.726Z,97781.08
2023-01-30T13:10:34.699Z,97771.02
2023-01-30T13:15:45.485Z,97774.35
2023-01-30T13:20:50.670Z,97772.98
2023-01-30T13:25:52.629Z,97773.63
2023-01-30T13:30:55.300Z,97765.32
2023-01-30T13:35:57.390Z,97755.98
2023-01-30T13:41:00.463Z,97762.02
2023-01-30T13:46:17.081Z,97758.80
2023-01-30T13:51:37.630Z,97744.70
2023-01-30T13:56:43.200Z,97741.34
2023-01-30T14:02:15.069Z,97735.86
2023-01-30T14:08:01.677Z,97741.94
2023-01-30T14:57:57.735Z,97753.81
2023-01-30T15:03:01.886Z,97762.56
2023-01-30T15:08:09.791Z,97770.95
2023-01-30T15:13:24.748Z,97779.21
2023-01-30T15:18:45.764Z,97791.80
2023-01-30T15:23:50.576Z,97798.80
2023-01-30T15:28:52.338Z,97805.89
2023-01-30T15:34:14.107Z,97806.34
2023-01-30T15:39:18.563Z,97806.98
2023-01-30T15:44:27.755Z,97810.38
2023-01-30T15:49:47.939Z,97813.89
2023-01-30T15:54:51.700Z,97818.55
2023-01-30T15:59:54.420Z,97815.80
2023-01-30T16:05:03.982Z,97820.66
2023-01-30T16:10:11.680Z,97825.94
2023-01-30T16:15:19.594Z,97836.39
2023-01-30T16:20:22.334Z,97840.46
2023-01-30T16:25:26.035Z,97836.84
2023-01-30T16:30:29.429Z,97841.36
2023-01-30T16:35:33.826Z,97849.34
2023-01-30T16:40:45.961Z,97856.64
2023-01-30T16:45:47.833Z,97859.23
2023-01-30T16:50:58.958Z,97859.34
2023-01-30T16:56:04.496Z,97848.48
2023-01-30T17:01:08.404Z,97843.30
2023-01-30T17:06:20.034Z,97844.17
2023-01-30T17:11:38.096Z,97851.40
2023-01-30T17:16:41.529Z,97854.52
2023-01-30T17:21:45.716Z,97858.83
2023-01-30T17:26:49.223Z,97868.23
2023-01-30T17:31:51.818Z,97861.58
2023-01-30T17:36:54.682Z,97852.08
2023-01-30T17:41:56.481Z,97847.67
2023-01-30T17:46:58.262Z,97853.54
2023-01-30T17:52:00.382Z,97843.21
2023-01-30T17:57:04.823Z,97840.58
2023-01-30T18:02:09.197Z,97837.32
2023-01-30T18:07:12.801Z,97842.50
2023-01-30T18:12:14.743Z,97831.42
2023-01-30T18:17:17.052Z,97823.88
2023-01-30T18:22:18.911Z,97825.95
2023-01-30T18:27:20.698Z,97833.23
2023-01-30T18:32:22.538Z,97828.55
2023-01-30T18:37:25.514Z,97827.42
2023-01-30T18:42:27.266Z,97826.34
2023-01-30T18:47:29.141Z,97825.15
2023-01-30T18:52:30.936Z,97822.47
2023-01-30T18:57:32.686Z,97818.95
2023-01-30T19:02:34.890Z,97820.43
2023-01-30T19:07:36.852Z,97821.79
2023-01-30T19:12:57.692Z,97828.13
2023-01-30T19:17:59.513Z,97833.84
2023-01-30T19:23:01.339Z,97838.19
2023-01-30T19:28:03.445Z,97839.16
2023-01-30T19:33:05.323Z,97840.86
2023-01-30T19:38:07.581Z,97848.09
2023-01-30T19:43:11.764Z,97863.41
2023-01-30T19:48:13.653Z,97859.67
2023-01-30T19:53:16.099Z,97861.66
2023-01-30T19:58:18.195Z,97880.11
2023-01-30T20:03:20.123Z,97879.65
2023-01-30T20:08:31.953Z,97883.64
2023-01-30T20:13:35.426Z,97885.27
2023-01-30T20:18:40.172Z,97889.29
2023-01-30T20:23:42.023Z,97899.52
2023-01-30T20:28:43.874Z,97904.17
2023-01-30T20:33:46.109Z,97910.33
2023-01-30T20:38:48.844Z,97895.79
2023-01-30T20:44:00.819Z,97897.74
2023-01-30T20:49:03.200Z,97901.64
2023-01-30T20:54:06.242Z,97907.27
2023-01-30T20:59:08.350Z,97908.25
2023-01-30T21:04:13.705Z,97917.17
2023-01-30T21:09:17.174Z,97918.39
2023-01-30T21:14:18.982Z,97918.98
2023-01-30T21:19:21.894Z,97920.05
2023-01-30T21:24:28.699Z,97933.00
2023-01-30T21:29:30.645Z,97950.81
2023-01-30T21:34:35.163Z,97964.07
2023-01-30T21:39:55.700Z,97970.46
2023-01-30T21:44:58.329Z,97978.27
2023-01-30T21:50:00.242Z,97975.96
2023-01-30T21:55:02.474Z,97987.23
2023-01-30T22:00:04.859Z,97987.54
2023-01-30T22:05:07.592Z,97994.98
2023-01-30T22:10:09.915Z,97992.73
2023-01-30T22:15:21.950Z,97999.52
2023-01-30T22:20:24.049Z,98007.34
2023-01-30T22:25:26.123Z,98021.55
2023-01-30T22:30:27.974Z,98032.48
2023-01-30T22:35:29.804Z,98045.67
2023-01-30T22:40:32.243Z,98053.63
2023-01-30T22:45:37.077Z,98056.91
2023-01-30T22:50:39.052Z,98058.94
2023-01-30T22:55:40.866Z,98063.65
2023-01-30T23:00:42.781Z,98066.66
2023-01-30T23:05:44.677Z,98066.80
2023-01-30T23:10:46.666Z,98074.64
2023-01-30T23:15:48.487Z,98081.81
2023-01-30T23:20:50.208Z,98084.52
2023-01-30T23:25:52.333Z,98089.27
2023-01-30T23:30:54.111Z,98092.36
2023-01-30T23:36:00.216Z,98098.63
2023-01-30T23:41:05.231Z,98098.67
2023-01-30T23:46:27.262Z,98098.89
2023-01-30T23:51:30.508Z,98099.20
2023-01-30T23:56:33.593Z,98100.50
